首页
METAR-TAF:

METAR-TAF

机场 :

麥克默里堡國際機場

Fort McMurray, 艾伯塔, 加拿大

纬度: 56-39N, 经度: 111-13W, 海拔: 369米

当前天气观测

该预报发布于52分钟前的01:00 UTC
风速3节,风向
温度 28°C
湿度 55%
气压 1022 hPa
能見度: 4.0公里
天空无云

METAR: CYMM 210100Z AUTO 10003KT 2 1/2SM HZ CLR 28/18 A3017 RMK SLP221 DENSITY ALT 2700FT

时间: 19:52 (01:52 UTC)

预报

该预报发布于1小时和12分钟前的00:40 UTC
预报有效从21日的 01点(UTC)到 21日的 13点(UTC)
风速3节,风向多变
能見度: 3.2公里
天空无云
短暂存在
从 21日的 01点(UTC)到 21日的 06点(UTC)
能見度: 8.0公里
从 21日的 0600点(UTC)
风速3节,风向多变
能見度: 1.6公里
天空无云
短暂存在
从 21日的 06点(UTC)到 21日的 13点(UTC)
能見度: 4.8公里

TAF: CYMM 210040Z 2101/2113 VRB03KT 2SM FU SKC TEMPO 2101/2106 5SM FU FM210600 VRB03KT 1SM FU SKC TEMPO 2106/2113 3SM FU RMK FCST BASED ON AUTO OBS. NXT FCST BY 210700Z

超过4000个机场的气象观测和天气预报(METAR&TAF报告)。

可查询的气象台以黄色和红色小点在地图上表示。

将鼠标移到小点上方,可查看气象台名称。

然后点击查看天气观测和预报。

如需切换地图:点击带黑十字的绿色按钮放大地图;点击带横线的绿色按钮缩小地图;或者点击绿色箭头查看邻近地区的地图。


METAR-TAF: